Time;durP1;ratioP1;P1;durP2;ratioP2;P2;SDS_P1;SDS_P2;PMS_P1;PMS_P2;Temp;Humidity;BMP_temperature;BMP_pressure;BME280_temperature;BME280_humidity;BME280_pressure;Samples;Min_cycle;Max_cycle;Signal;HPM_P1;HPM_P2
2023/02/20 00:01:00;;;;;;;4.25;1.40;;;;;;;;;;6187145;23;20431;-95
2023/02/20 00:03:26;;;;;;;3.03;1.20;;;;;;;;;;6186482;23;20001;-95
2023/02/20 00:05:55;;;;;;;5.85;1.45;;;;;;;;;;6186971;23;20040;-96
2023/02/20 00:08:28;;;;;;;3.50;1.27;;;;;;;;;;6164359;23;20084;-96
2023/02/20 00:10:54;;;;;;;5.38;1.73;;;;;;;;;;6187553;23;20005;-95
2023/02/20 00:13:38;;;;;;;3.88;1.20;;;;;;;;;;6187421;23;20009;-96
2023/02/20 00:16:04;;;;;;;6.10;1.27;;;;;;;;;;6187599;23;20024;-94
2023/02/20 00:18:33;;;;;;;4.85;1.15;;;;;;;;;;6162234;23;20075;-95
2023/02/20 00:20:59;;;;;;;4.50;1.20;;;;;;;;;;6187224;23;20032;-94
2023/02/20 00:23:25;;;;;;;1.83;0.90;;;;;;;;;;6186969;23;20339;-94
2023/02/20 00:25:51;;;;;;;2.92;0.95;;;;;;;;;;6186387;23;20446;-93
2023/02/20 00:28:20;;;;;;;2.58;0.73;;;;;;;;;;6185355;23;20001;-94
2023/02/20 00:30:50;;;;;;;3.75;1.10;;;;;;;;;;6185802;23;20013;-95
2023/02/20 00:33:19;;;;;;;3.58;1.00;;;;;;;;;;6188862;23;20323;-95
2023/02/20 00:35:45;;;;;;;2.45;0.80;;;;;;;;;;6187330;23;20017;-95
2023/02/20 00:38:11;;;;;;;3.13;0.88;;;;;;;;;;6186427;23;20081;-95
2023/02/20 00:40:37;;;;;;;3.78;1.00;;;;;;;;;;6187834;23;20005;-94
2023/02/20 00:43:07;;;;;;;3.47;1.05;;;;;;;;;;6187767;23;20021;-96
2023/02/20 00:45:33;;;;;;;4.00;1.27;;;;;;;;;;6186700;23;20079;-94
2023/02/20 00:48:05;;;;;;;5.07;1.02;;;;;;;;;;6186553;23;20339;-96
2023/02/20 00:50:31;;;;;;;4.68;1.40;;;;;;;;;;6161985;23;20001;-95
2023/02/20 00:53:04;;;;;;;2.40;0.75;;;;;;;;;;6187994;23;20084;-96
2023/02/20 00:55:36;;;;;;;3.55;1.10;;;;;;;;;;6186898;23;20017;-96
2023/02/20 00:58:02;;;;;;;4.07;1.30;;;;;;;;;;6186840;23;20445;-95
2023/02/20 01:00:34;;;;;;;4.43;1.23;;;;;;;;;;6187861;23;20005;-96
2023/02/20 01:03:00;;;;;;;2.85;0.88;;;;;;;;;;6162429;23;20012;-94
2023/02/20 01:05:32;;;;;;;3.53;1.15;;;;;;;;;;6186591;23;20085;-96
2023/02/20 01:08:18;;;;;;;3.13;0.90;;;;;;;;;;6186962;23;20088;-95
2023/02/20 01:10:47;;;;;;;3.80;0.90;;;;;;;;;;6165342;23;20423;-96
2023/02/20 01:13:13;;;;;;;4.05;1.00;;;;;;;;;;6187310;23;20005;-94
2023/02/20 01:16:03;;;;;;;3.10;0.90;;;;;;;;;;6185293;23;20005;-96
2023/02/20 01:18:32;;;;;;;2.70;1.05;;;;;;;;;;6169499;23;20001;-96
2023/02/20 01:27:14;;;;;;;4.43;2.25;;;;;;;;;;6188850;23;20016;-96
2023/02/20 01:29:43;;;;;;;3.45;1.58;;;;;;;;;;6191092;23;20005;-95
2023/02/20 01:32:11;;;;;;;3.63;1.77;;;;;;;;;;6190164;23;20438;-94
2023/02/20 01:34:37;;;;;;;2.70;1.42;;;;;;;;;;6190326;23;20001;-96
2023/02/20 01:37:06;;;;;;;4.65;1.08;;;;;;;;;;6190155;23;20020;-95
2023/02/20 01:39:32;;;;;;;5.50;1.20;;;;;;;;;;6190397;23;20012;-94
2023/02/20 01:42:03;;;;;;;8.13;1.23;;;;;;;;;;6190534;23;20001;-95
2023/02/20 01:44:31;;;;;;;5.53;1.83;;;;;;;;;;6212343;23;20008;-94
2023/02/20 01:47:07;;;;;;;4.25;1.17;;;;;;;;;;6190088;23;20004;-95
2023/02/20 01:52:38;;;;;;;5.45;1.60;;;;;;;;;;6191509;23;20009;-96
2023/02/20 01:55:07;;;;;;;4.75;1.90;;;;;;;;;;6190227;23;20001;-95
2023/02/20 01:57:35;;;;;;;2.30;0.80;;;;;;;;;;6190800;23;20015;-96
2023/02/20 02:00:06;;;;;;;4.82;2.08;;;;;;;;;;6190326;23;20000;-95
2023/02/20 02:02:41;;;;;;;5.88;1.90;;;;;;;;;;6190601;23;20088;-96
2023/02/20 02:05:09;;;;;;;6.70;1.83;;;;;;;;;;6190874;23;20007;-94
2023/02/20 02:07:44;;;;;;;6.25;1.65;;;;;;;;;;6191106;23;20059;-94
2023/02/20 02:10:13;;;;;;;4.47;1.48;;;;;;;;;;6189874;23;20000;-96
2023/02/20 02:13:02;;;;;;;4.20;1.00;;;;;;;;;;6191512;23;20012;-95
2023/02/20 02:15:31;;;;;;;3.92;0.70;;;;;;;;;;6175994;23;20500;-95
2023/02/20 02:18:03;;;;;;;4.32;0.90;;;;;;;;;;6190492;23;20066;-93
2023/02/20 02:20:40;;;;;;;2.28;0.70;;;;;;;;;;6190175;23;20079;-96
2023/02/20 02:23:26;;;;;;;4.93;0.95;;;;;;;;;;6190631;23;20004;-95
2023/02/20 02:26:11;;;;;;;4.43;1.02;;;;;;;;;;6191998;23;20001;-95
2023/02/20 02:29:07;;;;;;;3.90;0.82;;;;;;;;;;6187354;23;20039;-94
2023/02/20 02:31:33;;;;;;;2.78;0.60;;;;;;;;;;6187929;23;20084;-95
2023/02/20 02:34:18;;;;;;;2.53;0.50;;;;;;;;;;6186951;23;20080;-96
2023/02/20 02:37:02;;;;;;;3.50;0.80;;;;;;;;;;6187086;23;20088;-96
2023/02/20 02:39:47;;;;;;;3.85;1.02;;;;;;;;;;6187578;23;20008;-96
2023/02/20 02:42:39;;;;;;;2.60;0.90;;;;;;;;;;6187376;23;20033;-94
2023/02/20 02:45:23;;;;;;;3.15;1.00;;;;;;;;;;6187767;23;20016;-94
2023/02/20 02:47:53;;;;;;;3.92;1.30;;;;;;;;;;6187783;23;20009;-94
2023/02/20 02:50:23;;;;;;;3.17;1.08;;;;;;;;;;6187222;23;20147;-94
2023/02/20 02:53:02;;;;;;;4.20;1.30;;;;;;;;;;6187289;23;20009;-95
2023/02/20 02:55:37;;;;;;;4.22;1.50;;;;;;;;;;6187592;23;20013;-96
2023/02/20 02:58:04;;;;;;;6.00;1.67;;;;;;;;;;6187465;23;20482;-92
2023/02/20 03:00:52;;;;;;;3.40;1.60;;;;;;;;;;6188373;23;20017;-94
2023/02/20 03:03:22;;;;;;;4.60;1.35;;;;;;;;;;6186448;23;20005;-95
2023/02/20 03:09:02;;;;;;;4.43;1.27;;;;;;;;;;6186531;23;20005;-94
2023/02/20 03:11:30;;;;;;;3.22;1.35;;;;;;;;;;6186025;23;20009;-94
2023/02/20 03:17:19;;;;;;;2.40;0.80;;;;;;;;;;6186972;23;20136;-95
2023/02/20 03:20:12;;;;;;;4.90;1.10;;;;;;;;;;6186617;23;20438;-96
2023/02/20 03:22:47;;;;;;;6.47;1.10;;;;;;;;;;6073390;23;20006;-95
2023/02/20 03:28:33;;;;;;;7.00;2.60;;;;;;;;;;6095003;23;20029;-95
2023/02/20 03:31:21;;;;;;;5.95;2.03;;;;;;;;;;6073124;23;20046;-96
2023/02/20 03:46:05;;;;;;;4.53;1.15;;;;;;;;;;6189593;23;20035;-93
2023/02/20 03:48:21;;;;;;;4.30;1.33;;;;;;;;;;6172727;23;20386;-95
2023/02/20 03:53:38;;;;;;;4.47;1.33;;;;;;;;;;6187984;23;20020;-95
2023/02/20 03:56:11;;;;;;;4.47;1.20;;;;;;;;;;6185912;23;20017;-94
2023/02/20 04:07:41;;;;;;;7.85;1.50;;;;;;;;;;6188335;23;20016;-96
2023/02/20 04:10:09;;;;;;;7.10;2.08;;;;;;;;;;6185944;23;20430;-95
2023/02/20 04:13:02;;;;;;;13.30;4.93;;;;;;;;;;6186486;23;20060;-95
2023/02/20 04:15:49;;;;;;;15.27;5.00;;;;;;;;;;6186184;23;20017;-95
2023/02/20 04:18:30;;;;;;;11.73;4.38;;;;;;;;;;6186417;23;20001;-95
2023/02/20 04:21:06;;;;;;;10.32;2.97;;;;;;;;;;6186733;23;20029;-96
2023/02/20 04:23:36;;;;;;;6.88;2.95;;;;;;;;;;6186590;23;20033;-94
2023/02/20 04:29:20;;;;;;;8.10;1.70;;;;;;;;;;6171831;23;20056;-96
2023/02/20 04:31:43;;;;;;;5.25;1.75;;;;;;;;;;6185204;23;20088;-95
2023/02/20 04:34:09;;;;;;;12.55;4.65;;;;;;;;;;6186783;23;20008;-94
2023/02/20 04:36:51;;;;;;;14.88;5.50;;;;;;;;;;6186346;23;20513;-96
2023/02/20 04:39:17;;;;;;;14.98;5.82;;;;;;;;;;6187613;23;20008;-96
2023/02/20 04:42:12;;;;;;;10.95;4.18;;;;;;;;;;6186154;23;20075;-96
2023/02/20 04:47:46;;;;;;;8.00;3.42;;;;;;;;;;6171628;23;20005;-96
2023/02/20 04:50:16;;;;;;;6.75;2.75;;;;;;;;;;6185828;23;20015;-96
2023/02/20 04:52:45;;;;;;;4.22;1.70;;;;;;;;;;6186381;23;20001;-95
2023/02/20 04:55:28;;;;;;;5.97;1.77;;;;;;;;;;6185419;23;20768;-96
2023/02/20 04:58:13;;;;;;;;;;;;;;;;;;6185872;23;20029;-96
2023/02/20 05:00:39;;;;;;;5.28;1.20;;;;;;;;;;6185636;23;19907;-95
2023/02/20 05:03:05;;;;;;;2.88;1.35;;;;;;;;;;6185298;23;20055;-95
2023/02/20 05:05:37;;;;;;;5.65;1.75;;;;;;;;;;6185746;23;20009;-96
2023/02/20 05:08:09;;;;;;;5.38;2.10;;;;;;;;;;6185721;23;20001;-96
2023/02/20 05:10:38;;;;;;;5.13;2.00;;;;;;;;;;6185855;23;20431;-96
2023/02/20 05:13:33;;;;;;;7.28;2.33;;;;;;;;;;6186591;23;20001;-95
2023/02/20 05:16:28;;;;;;;8.55;2.17;;;;;;;;;;6186751;23;20017;-96
2023/02/20 05:19:04;;;;;;;;;;;;;;;;;;;;;
2023/02/20 05:25:01;;;;;;;7.57;1.92;;;;;;;;;;6096797;23;20021;-95
2023/02/20 05:27:33;;;;;;;7.30;1.90;;;;;;;;;;6189224;23;20033;-95
2023/02/20 05:30:43;;;;;;;6.68;2.08;;;;;;;;;;6191127;23;20087;-95
2023/02/20 05:33:12;;;;;;;7.65;1.77;;;;;;;;;;6191020;23;20007;-96
2023/02/20 05:35:41;;;;;;;4.68;1.52;;;;;;;;;;6190983;23;20009;-96
2023/02/20 05:38:26;;;;;;;5.78;2.10;;;;;;;;;;6168312;23;20015;-94
2023/02/20 05:44:32;;;;;;;4.93;1.77;;;;;;;;;;6010456;23;20060;-94
2023/02/20 05:47:10;;;;;;;13.52;5.75;;;;;;;;;;5983516;23;20551;-96
2023/02/20 05:49:51;;;;;;;12.68;4.68;;;;;;;;;;6011050;23;20011;-94
2023/02/20 05:52:36;;;;;;;8.70;3.05;;;;;;;;;;6010132;23;20095;-95
2023/02/20 05:55:05;;;;;;;7.30;2.60;;;;;;;;;;6109373;23;20005;-96
2023/02/20 05:57:34;;;;;;;6.35;2.38;;;;;;;;;;6188491;23;20004;-93
2023/02/20 06:00:00;;;;;;;6.97;1.85;;;;;;;;;;6189558;23;20012;-95
2023/02/20 06:02:29;;;;;;;6.93;2.30;;;;;;;;;;6191673;23;20012;-94
2023/02/20 06:04:55;;;;;;;9.30;2.33;;;;;;;;;;6192047;23;20051;-96
2023/02/20 06:07:21;;;;;;;7.82;3.15;;;;;;;;;;6193934;23;20019;-94
2023/02/20 06:09:50;;;;;;;9.80;2.33;;;;;;;;;;6191930;23;20004;-94
2023/02/20 06:12:16;;;;;;;6.70;2.90;;;;;;;;;;6192804;23;20005;-95
2023/02/20 06:20:50;;;;;;;6.68;3.75;;;;;;;;;;6068178;23;20086;-96
2023/02/20 06:23:17;;;;;;;8.05;3.13;;;;;;;;;;6178391;23;20009;-95
2023/02/20 06:29:32;;;;;;;;;;;;;;;;;;;;;
2023/02/20 06:32:29;;;;;;;10.00;4.32;;;;;;;;;;6095269;23;20066;-94
2023/02/20 06:44:38;;;;;;;12.48;5.20;;;;;;;;;;6154954;23;20346;-94
2023/02/20 06:47:09;;;;;;;8.55;5.10;;;;;;;;;;6191008;23;20008;-95
2023/02/20 06:50:04;;;;;;;;;;;;;;;;;;;;;
2023/02/20 07:05:07;;;;;;;6.53;2.60;;;;;;;;;;6220600;23;20060;-95
2023/02/20 07:07:37;;;;;;;6.35;2.63;;;;;;;;;;6191447;23;20236;-91
2023/02/20 07:10:04;;;;;;;6.55;2.55;;;;;;;;;;6216276;23;20009;-94
2023/02/20 07:12:36;;;;;;;7.68;3.10;;;;;;;;;;6215789;23;20004;-94
2023/02/20 07:15:03;;;;;;;7.25;3.33;;;;;;;;;;6215799;23;20062;-93
2023/02/20 07:17:34;;;;;;;4.60;2.60;;;;;;;;;;6215549;23;20008;-95
2023/02/20 07:20:03;;;;;;;8.13;2.83;;;;;;;;;;6215911;23;20007;-94
2023/02/20 07:22:29;;;;;;;8.88;3.10;;;;;;;;;;6215533;23;20084;-94
2023/02/20 07:24:56;;;;;;;7.43;3.30;;;;;;;;;;6215823;23;20434;-93
2023/02/20 07:27:24;;;;;;;7.55;3.60;;;;;;;;;;6215881;23;20006;-94
2023/02/20 07:29:51;;;;;;;6.40;3.35;;;;;;;;;;6215778;23;20004;-93
2023/02/20 07:32:23;;;;;;;7.32;3.60;;;;;;;;;;6215657;23;20001;-94
2023/02/20 07:34:49;;;;;;;5.90;3.97;;;;;;;;;;6215731;23;20066;-93
2023/02/20 07:37:15;;;;;;;7.07;3.38;;;;;;;;;;6216666;23;20017;-93
2023/02/20 07:39:42;;;;;;;7.47;3.63;;;;;;;;;;6215907;23;20009;-94
2023/02/20 07:42:23;;;;;;;;;;;;;;;;;;;;;
2023/02/20 07:44:49;;;;;;;10.90;3.75;;;;;;;;;;6217108;23;20080;-93
2023/02/20 07:47:17;;;;;;;6.82;3.28;;;;;;;;;;6217604;23;20005;-95
2023/02/20 07:49:50;;;;;;;7.38;3.20;;;;;;;;;;6223856;23;20000;-92
2023/02/20 07:52:30;;;;;;;7.38;4.00;;;;;;;;;;6233826;23;20013;-94
2023/02/20 07:55:05;;;;;;;8.90;3.58;;;;;;;;;;6220132;23;20031;-96
2023/02/20 07:57:57;;;;;;;6.65;3.40;;;;;;;;;;6216039;23;20040;-96
2023/02/20 08:00:25;;;;;;;10.82;3.22;;;;;;;;;;6209536;23;20007;-94
2023/02/20 08:02:51;;;;;;;6.65;3.05;;;;;;;;;;6220247;23;20051;-95
2023/02/20 08:05:26;;;;;;;9.05;3.70;;;;;;;;;;6192626;23;20012;-96
2023/02/20 08:07:55;;;;;;;8.43;3.58;;;;;;;;;;6216187;23;20016;-94
2023/02/20 08:10:37;;;;;;;10.43;3.72;;;;;;;;;;6220776;23;20028;-90
2023/02/20 08:13:13;;;;;;;7.38;3.15;;;;;;;;;;6195277;22;20024;-90
2023/02/20 08:15:40;;;;;;;7.82;3.78;;;;;;;;;;6197911;23;20017;-92
2023/02/20 08:18:14;;;;;;;6.07;3.20;;;;;;;;;;6160522;23;20009;-95
2023/02/20 08:20:43;;;;;;;6.22;3.90;;;;;;;;;;6160648;23;20482;-95
2023/02/20 08:23:20;;;;;;;7.68;3.58;;;;;;;;;;6160544;23;20573;-92
2023/02/20 08:25:46;;;;;;;9.48;3.40;;;;;;;;;;6160709;23;20176;-92
2023/02/20 08:28:13;;;;;;;7.63;3.00;;;;;;;;;;6168717;23;20036;-91
2023/02/20 08:30:40;;;;;;;8.95;3.65;;;;;;;;;;6166966;23;19989;-96
2023/02/20 08:33:18;;;;;;;10.50;3.80;;;;;;;;;;6178881;23;20005;-92
2023/02/20 08:35:54;;;;;;;;;;;;;;;;;;;;;
2023/02/20 08:38:37;;;;;;;8.45;3.55;;;;;;;;;;6188945;23;20020;-92
2023/02/20 08:41:08;;;;;;;7.93;4.00;;;;;;;;;;6160620;23;20009;-92
2023/02/20 08:43:35;;;;;;;7.10;4.00;;;;;;;;;;6160370;23;20095;-93
2023/02/20 08:46:04;;;;;;;9.13;4.07;;;;;;;;;;6160332;23;20033;-94
2023/02/20 08:48:30;;;;;;;5.50;3.67;;;;;;;;;;6160317;23;20051;-94
2023/02/20 08:50:59;;;;;;;9.02;4.22;;;;;;;;;;6161073;23;20001;-92
2023/02/20 08:53:25;;;;;;;12.40;4.90;;;;;;;;;;6160281;23;20132;-95
2023/02/20 08:55:51;;;;;;;8.85;4.80;;;;;;;;;;6160372;23;20048;-93
2023/02/20 08:58:21;;;;;;;7.28;4.10;;;;;;;;;;6160386;23;20085;-91
2023/02/20 09:00:48;;;;;;;10.15;4.93;;;;;;;;;;6160278;23;20007;-93
2023/02/20 09:03:14;;;;;;;8.40;4.30;;;;;;;;;;6159803;23;20012;-93
2023/02/20 09:05:41;;;;;;;9.90;4.68;;;;;;;;;;6160305;23;20426;-92
2023/02/20 09:08:07;;;;;;;9.63;4.72;;;;;;;;;;6160306;23;20012;-94
2023/02/20 09:10:34;;;;;;;9.98;5.70;;;;;;;;;;6160195;23;20001;-95
2023/02/20 09:13:02;;;;;;;8.35;4.80;;;;;;;;;;6160275;23;20009;-94
2023/02/20 09:15:30;;;;;;;6.82;4.63;;;;;;;;;;6159968;23;20016;-93
2023/02/20 09:21:00;;;;;;;7.90;3.50;;;;;;;;;;6185751;23;20393;-94
2023/02/20 09:26:30;;;;;;;7.30;3.53;;;;;;;;;;6185842;23;20012;-93
2023/02/20 09:28:56;;;;;;;6.78;3.40;;;;;;;;;;6159859;23;20744;-91
2023/02/20 09:31:22;;;;;;;6.47;3.60;;;;;;;;;;6160173;23;20005;-93
2023/02/20 09:33:54;;;;;;;5.97;3.58;;;;;;;;;;6160333;23;20444;-96
2023/02/20 09:36:29;;;;;;;7.63;2.97;;;;;;;;;;6185635;23;20013;-94
2023/02/20 09:38:58;;;;;;;5.72;3.22;;;;;;;;;;6160541;23;20005;-95
2023/02/20 09:41:30;;;;;;;8.80;3.88;;;;;;;;;;6159911;23;20307;-93
2023/02/20 09:44:00;;;;;;;6.20;3.30;;;;;;;;;;6163696;23;20005;-93
2023/02/20 09:46:26;;;;;;;6.65;3.15;;;;;;;;;;6160176;23;20064;-95
2023/02/20 09:48:57;;;;;;;6.57;3.30;;;;;;;;;;6160026;23;20005;-93
2023/02/20 09:51:29;;;;;;;6.07;3.42;;;;;;;;;;6161888;23;20012;-93
2023/02/20 09:54:04;;;;;;;6.35;3.00;;;;;;;;;;6160210;23;20001;-92
2023/02/20 09:57:02;;;;;;;6.53;3.45;;;;;;;;;;6160153;23;20017;-94
2023/02/20 09:59:39;;;;;;;5.78;3.00;;;;;;;;;;6159351;23;20438;-95
2023/02/20 10:02:08;;;;;;;5.57;3.30;;;;;;;;;;6160246;23;20052;-95
2023/02/20 10:04:53;;;;;;;5.32;3.50;;;;;;;;;;6159621;23;20725;-95
2023/02/20 10:07:20;;;;;;;6.32;3.72;;;;;;;;;;6160118;23;20012;-96
2023/02/20 10:09:46;;;;;;;6.53;3.30;;;;;;;;;;6163166;23;20093;-96
2023/02/20 10:12:18;;;;;;;7.47;3.80;;;;;;;;;;6160366;23;20005;-94
2023/02/20 10:15:14;;;;;;;6.30;3.42;;;;;;;;;;6154996;23;20022;-93
2023/02/20 10:17:40;;;;;;;5.63;3.65;;;;;;;;;;6128502;23;20013;-92
2023/02/20 10:20:12;;;;;;;5.50;4.00;;;;;;;;;;6154625;23;20012;-93
2023/02/20 10:22:47;;;;;;;6.65;3.75;;;;;;;;;;6155035;23;20017;-93
2023/02/20 10:25:17;;;;;;;6.47;3.67;;;;;;;;;;6154622;23;20084;-92
2023/02/20 10:27:49;;;;;;;7.30;4.53;;;;;;;;;;6154132;23;20420;-94
2023/02/20 10:30:18;;;;;;;7.43;5.22;;;;;;;;;;6154958;23;20069;-92
2023/02/20 10:33:14;;;;;;;8.82;4.50;;;;;;;;;;6158412;23;20014;-92
2023/02/20 10:35:49;;;;;;;6.63;4.05;;;;;;;;;;6130341;23;20017;-94
2023/02/20 10:38:19;;;;;;;5.57;3.90;;;;;;;;;;6159346;23;20014;-92
2023/02/20 10:41:27;;;;;;;6.03;4.25;;;;;;;;;;6155018;23;20006;-94
2023/02/20 10:43:58;;;;;;;7.40;4.13;;;;;;;;;;6042143;23;20025;-93
2023/02/20 10:46:30;;;;;;;8.82;4.30;;;;;;;;;;6042798;23;20022;-95
2023/02/20 10:48:59;;;;;;;8.65;4.40;;;;;;;;;;6094760;23;20007;-93
2023/02/20 10:51:39;;;;;;;8.30;4.30;;;;;;;;;;6156076;23;20043;-92
2023/02/20 10:54:11;;;;;;;5.38;3.60;;;;;;;;;;6156599;23;20080;-95
2023/02/20 10:56:46;;;;;;;7.97;3.88;;;;;;;;;;6156374;23;20096;-94
2023/02/20 10:59:16;;;;;;;6.43;3.08;;;;;;;;;;6154306;23;20036;-92
2023/02/20 11:01:43;;;;;;;7.32;2.88;;;;;;;;;;6154149;23;20088;-95
2023/02/20 11:04:14;;;;;;;6.65;3.17;;;;;;;;;;6155568;23;20034;-95
2023/02/20 11:06:43;;;;;;;6.43;3.13;;;;;;;;;;6156581;23;20009;-95
2023/02/20 11:09:09;;;;;;;4.53;2.95;;;;;;;;;;6156681;23;20141;-94
2023/02/20 11:11:46;;;;;;;4.85;2.92;;;;;;;;;;6156457;23;20010;-95
2023/02/20 11:14:32;;;;;;;5.75;3.10;;;;;;;;;;6156391;23;20100;-95
2023/02/20 11:17:01;;;;;;;7.25;2.72;;;;;;;;;;6156046;23;20096;-94
2023/02/20 11:19:32;;;;;;;4.93;2.50;;;;;;;;;;6156043;23;20012;-94
2023/02/20 11:21:58;;;;;;;5.00;2.67;;;;;;;;;;6156686;23;20033;-94
2023/02/20 11:24:30;;;;;;;6.47;3.13;;;;;;;;;;6157319;23;20316;-93
2023/02/20 11:27:20;;;;;;;7.07;2.90;;;;;;;;;;6161204;23;20005;-94
2023/02/20 11:30:19;;;;;;;5.60;3.00;;;;;;;;;;6190045;23;20014;-93
2023/02/20 11:32:46;;;;;;;6.68;3.10;;;;;;;;;;6145044;22;20012;-93
2023/02/20 11:41:19;;;;;;;4.65;2.75;;;;;;;;;;6185515;23;20453;-92
2023/02/20 11:43:47;;;;;;;8.55;2.85;;;;;;;;;;6165641;23;20400;-93
2023/02/20 11:46:35;;;;;;;6.30;2.80;;;;;;;;;;6166791;23;20001;-92
2023/02/20 11:49:24;;;;;;;6.72;2.80;;;;;;;;;;6165201;23;20371;-95
2023/02/20 11:51:51;;;;;;;5.25;2.60;;;;;;;;;;6169625;23;20005;-95
2023/02/20 11:54:22;;;;;;;7.30;2.95;;;;;;;;;;6162706;23;20002;-94
2023/02/20 11:57:09;;;;;;;7.45;2.50;;;;;;;;;;6161521;23;20012;-94
2023/02/20 12:08:48;;;;;;;7.18;2.47;;;;;;;;;;6187617;23;20052;-93
2023/02/20 12:11:16;;;;;;;6.18;2.60;;;;;;;;;;6162702;23;20005;-94
2023/02/20 12:13:44;;;;;;;8.60;2.35;;;;;;;;;;6160466;23;20012;-93
2023/02/20 12:16:17;;;;;;;5.03;2.10;;;;;;;;;;6160092;23;20377;-92
2023/02/20 12:18:43;;;;;;;6.28;2.50;;;;;;;;;;6159895;23;20005;-93
2023/02/20 12:21:09;;;;;;;4.40;2.03;;;;;;;;;;6158469;23;20005;-95
2023/02/20 12:23:48;;;;;;;5.00;2.30;;;;;;;;;;6159103;23;20012;-92
2023/02/20 12:26:18;;;;;;;4.55;2.15;;;;;;;;;;6161129;23;20336;-93
2023/02/20 12:29:10;;;;;;;6.53;2.20;;;;;;;;;;6160033;23;20098;-93
2023/02/20 12:31:48;;;;;;;4.95;2.00;;;;;;;;;;6095685;23;20074;-93
2023/02/20 12:34:40;;;;;;;4.00;1.73;;;;;;;;;;6159036;23;20016;-92
2023/02/20 12:37:25;;;;;;;4.13;2.20;;;;;;;;;;6160917;23;20557;-92
2023/02/20 12:40:03;;;;;;;5.38;2.05;;;;;;;;;;6160911;23;20009;-93
2023/02/20 12:42:50;;;;;;;5.22;2.03;;;;;;;;;;6159852;23;20013;-93
2023/02/20 12:45:28;;;;;;;6.43;1.90;;;;;;;;;;6160108;23;20020;-94
2023/02/20 12:48:03;;;;;;;5.43;2.10;;;;;;;;;;6162675;23;20001;-91
2023/02/20 12:51:02;;;;;;;5.25;2.10;;;;;;;;;;6161110;23;20013;-93
2023/02/20 12:53:37;;;;;;;3.85;1.80;;;;;;;;;;6035554;23;20009;-93
2023/02/20 12:56:06;;;;;;;7.60;2.28;;;;;;;;;;6160174;23;20076;-94
2023/02/20 12:58:47;;;;;;;5.05;1.80;;;;;;;;;;6160271;23;20008;-93
2023/02/20 13:01:13;;;;;;;3.88;1.73;;;;;;;;;;6162044;23;20009;-94
2023/02/20 13:03:58;;;;;;;5.05;2.10;;;;;;;;;;6164685;23;20059;-93
2023/02/20 13:06:30;;;;;;;4.32;1.75;;;;;;;;;;6159279;23;20009;-92
2023/02/20 13:09:08;;;;;;;6.47;2.20;;;;;;;;;;6174040;23;20013;-93
2023/02/20 13:11:40;;;;;;;6.88;1.80;;;;;;;;;;6187995;23;20005;-93
2023/02/20 13:14:25;;;;;;;5.50;1.95;;;;;;;;;;6185486;23;20024;-94
2023/02/20 13:16:54;;;;;;;3.95;1.83;;;;;;;;;;6183820;23;20016;-92
2023/02/20 13:19:28;;;;;;;4.95;2.00;;;;;;;;;;6183258;23;20012;-94
2023/02/20 13:22:16;;;;;;;3.30;1.38;;;;;;;;;;6196222;23;20391;-96
2023/02/20 13:24:45;;;;;;;5.72;2.10;;;;;;;;;;6187532;23;20407;-93
2023/02/20 13:29:57;;;;;;;5.25;1.80;;;;;;;;;;6237059;23;20051;-91
2023/02/20 13:32:34;;;;;;;5.30;1.83;;;;;;;;;;6223750;23;20039;-93
2023/02/20 13:35:22;;;;;;;6.78;1.95;;;;;;;;;;6225058;23;20014;-91
2023/02/20 13:37:55;;;;;;;5.47;1.88;;;;;;;;;;6225975;23;20098;-96
2023/02/20 13:40:27;;;;;;;7.72;1.95;;;;;;;;;;6219042;23;20004;-96
2023/02/20 13:43:12;;;;;;;5.80;2.30;;;;;;;;;;6219685;23;20004;-94
2023/02/20 13:45:42;;;;;;;7.00;2.17;;;;;;;;;;6218790;23;19996;-90
2023/02/20 13:48:18;;;;;;;5.20;2.00;;;;;;;;;;6219383;23;20004;-94
2023/02/20 13:50:44;;;;;;;7.00;2.10;;;;;;;;;;6220028;23;20000;-93
2023/02/20 13:53:11;;;;;;;6.53;2.40;;;;;;;;;;6222487;23;20008;-95
2023/02/20 13:55:59;;;;;;;7.30;1.90;;;;;;;;;;6221071;23;20012;-96
2023/02/20 13:58:26;;;;;;;4.70;1.85;;;;;;;;;;6245852;23;20015;-96
2023/02/20 14:00:54;;;;;;;7.20;1.85;;;;;;;;;;6221892;23;20027;-95
2023/02/20 14:03:34;;;;;;;3.70;1.48;;;;;;;;;;6226977;23;20011;-96
2023/02/20 14:09:09;;;;;;;7.10;3.90;;;;;;;;;;6193680;23;20032;-91
2023/02/20 14:11:46;;;;;;;5.57;2.20;;;;;;;;;;6221248;23;20000;-92
2023/02/20 14:14:53;;;;;;;6.03;1.90;;;;;;;;;;6223099;23;20004;-95
2023/02/20 14:17:21;;;;;;;6.38;2.05;;;;;;;;;;6219807;23;20012;-94
2023/02/20 14:20:00;;;;;;;4.22;1.63;;;;;;;;;;6223332;23;20453;-95
2023/02/20 14:23:04;;;;;;;4.25;1.70;;;;;;;;;;6224662;23;20012;-94
2023/02/20 14:25:33;;;;;;;3.85;1.60;;;;;;;;;;6076268;23;20026;-92
2023/02/20 14:28:09;;;;;;;4.70;1.90;;;;;;;;;;6202362;23;20022;-94
2023/02/20 14:30:35;;;;;;;6.00;1.70;;;;;;;;;;6223456;23;20704;-90
2023/02/20 14:33:17;;;;;;;4.28;1.73;;;;;;;;;;6222243;23;20414;-94
2023/02/20 14:35:46;;;;;;;6.25;1.77;;;;;;;;;;6224137;23;20894;-95
2023/02/20 14:38:26;;;;;;;5.57;2.00;;;;;;;;;;6223253;23;20008;-95
2023/02/20 14:40:52;;;;;;;6.38;1.80;;;;;;;;;;6223877;23;20004;-95
2023/02/20 14:49:23;;;;;;;3.95;1.65;;;;;;;;;;6216163;23;20090;-95
2023/02/20 14:51:49;;;;;;;5.05;1.98;;;;;;;;;;6216043;23;20005;-95
2023/02/20 14:54:26;;;;;;;8.32;2.03;;;;;;;;;;6215332;23;20507;-94
2023/02/20 14:56:57;;;;;;;4.30;1.85;;;;;;;;;;6214439;23;20505;-94
2023/02/20 14:59:26;;;;;;;4.53;1.52;;;;;;;;;;6214541;23;20087;-95
2023/02/20 15:01:55;;;;;;;5.10;1.65;;;;;;;;;;6214665;23;20011;-94
2023/02/20 15:04:22;;;;;;;3.50;1.52;;;;;;;;;;6214358;23;20001;-94
2023/02/20 15:06:53;;;;;;;4.03;1.63;;;;;;;;;;6215021;23;20005;-95
2023/02/20 15:09:22;;;;;;;4.55;1.55;;;;;;;;;;6219468;23;20005;-95
2023/02/20 15:12:08;;;;;;;6.20;1.50;;;;;;;;;;6223429;23;20557;-96
2023/02/20 15:17:45;;;;;;;;;;;;;;;;;;;;;
2023/02/20 15:20:20;;;;;;;7.22;1.52;;;;;;;;;;6221125;23;20039;-96
2023/02/20 15:25:52;;;;;;;3.72;1.48;;;;;;;;;;6236638;23;19996;-96
2023/02/20 15:28:19;;;;;;;8.25;1.55;;;;;;;;;;6223422;23;20008;-95
2023/02/20 15:31:23;;;;;;;5.97;1.92;;;;;;;;;;6225051;23;20024;-96
2023/02/20 15:34:14;;;;;;;;;;;;;;;;;;;;;
2023/02/20 15:36:41;;;;;;;6.05;1.50;;;;;;;;;;6220435;23;20072;-91
2023/02/20 15:39:43;;;;;;;;;;;;;;;;;;;;;
2023/02/20 15:42:47;;;;;;;5.45;1.60;;;;;;;;;;6223143;23;20020;-96
2023/02/20 15:45:18;;;;;;;6.25;2.05;;;;;;;;;;6213333;23;20012;-96
2023/02/20 15:47:52;;;;;;;5.38;1.48;;;;;;;;;;6223592;23;20007;-96
2023/02/20 15:50:20;;;;;;;2.95;1.40;;;;;;;;;;6220525;23;20020;-95
2023/02/20 15:52:50;;;;;;;10.57;4.30;;;;;;;;;;6228241;23;20104;-95
2023/02/20 15:58:42;;;;;;;15.90;5.38;;;;;;;;;;6139965;23;20089;-94
2023/02/20 16:01:08;;;;;;;13.50;4.38;;;;;;;;;;6102822;23;20006;-92
2023/02/20 16:03:50;;;;;;;;;;;;;;;;;;;;;
2023/02/20 16:06:26;;;;;;;;;;;;;;;;;;;;;
2023/02/20 16:09:08;;;;;;;10.93;4.20;;;;;;;;;;6145461;23;20012;-96
2023/02/20 16:12:19;;;;;;;14.02;4.78;;;;;;;;;;6229164;23;20001;-96
2023/02/20 16:14:46;;;;;;;5.05;1.67;;;;;;;;;;6210307;23;20016;-96
2023/02/20 16:17:23;;;;;;;7.55;3.22;;;;;;;;;;6224044;23;20162;-96
2023/02/20 16:22:52;;;;;;;10.40;4.00;;;;;;;;;;6209003;23;20031;-96
2023/02/20 16:25:24;;;;;;;8.55;3.00;;;;;;;;;;6227996;23;20016;-96
2023/02/20 16:28:03;;;;;;;16.40;6.88;;;;;;;;;;6225800;23;20321;-96
2023/02/20 16:30:39;;;;;;;24.05;9.25;;;;;;;;;;6223832;23;20004;-96
2023/02/20 16:44:35;;;;;;;11.63;5.35;;;;;;;;;;6249550;22;20051;-96
2023/02/20 16:47:19;;;;;;;13.43;4.93;;;;;;;;;;6245987;23;20007;-95
2023/02/20 16:49:45;;;;;;;16.42;7.22;;;;;;;;;;6246558;23;20008;-93
2023/02/20 16:52:16;;;;;;;23.83;10.35;;;;;;;;;;6248482;23;20413;-94
2023/02/20 16:54:56;;;;;;;5.22;2.15;;;;;;;;;;6186611;23;20105;-95
2023/02/20 16:57:23;;;;;;;21.63;11.45;;;;;;;;;;6220375;23;20016;-96
2023/02/20 16:59:50;;;;;;;6.78;4.25;;;;;;;;;;6222364;23;20008;-95
2023/02/20 17:02:18;;;;;;;8.00;4.68;;;;;;;;;;6245787;23;20008;-94
2023/02/20 17:04:50;;;;;;;6.65;3.78;;;;;;;;;;6247146;23;20421;-94
2023/02/20 17:07:16;;;;;;;6.40;3.60;;;;;;;;;;6249451;23;20000;-95
2023/02/20 17:09:46;;;;;;;3.15;1.35;;;;;;;;;;6247920;23;20004;-96
2023/02/20 17:15:48;;;;;;;8.40;3.53;;;;;;;;;;6249870;23;20004;-96
2023/02/20 17:18:14;;;;;;;7.03;3.03;;;;;;;;;;6248784;23;20079;-95
2023/02/20 17:23:50;;;;;;;6.37;2.20;;;;;;;;;;6244947;23;20058;-95
2023/02/20 17:29:20;;;;;;;6.82;2.40;;;;;;;;;;6246013;23;20054;-94
2023/02/20 17:31:46;;;;;;;6.03;2.50;;;;;;;;;;6225372;23;19994;-96
2023/02/20 17:34:15;;;;;;;6.35;2.03;;;;;;;;;;6252179;23;20015;-95
2023/02/20 17:36:51;;;;;;;8.32;3.92;;;;;;;;;;6248186;23;20012;-95
2023/02/20 17:39:21;;;;;;;7.22;3.10;;;;;;;;;;6248439;23;20028;-96
2023/02/20 17:41:48;;;;;;;4.82;2.17;;;;;;;;;;6253947;23;20103;-95
2023/02/20 17:44:17;;;;;;;3.78;1.50;;;;;;;;;;6248765;23;20000;-96
2023/02/20 17:47:02;;;;;;;5.53;1.63;;;;;;;;;;6248239;23;20437;-96
2023/02/20 17:49:34;;;;;;;4.30;1.90;;;;;;;;;;6257030;23;20008;-96
2023/02/20 17:52:20;;;;;;;4.55;1.58;;;;;;;;;;6255889;23;20066;-96
2023/02/20 17:54:49;;;;;;;8.65;1.98;;;;;;;;;;6250617;23;20012;-95
2023/02/20 18:00:09;;;;;;;6.47;2.60;;;;;;;;;;6219308;22;20047;-94
2023/02/20 18:02:50;;;;;;;7.43;1.80;;;;;;;;;;6181526;23;20004;-96
2023/02/20 18:05:22;;;;;;;5.60;2.13;;;;;;;;;;6192360;23;20035;-95
2023/02/20 18:07:48;;;;;;;3.55;1.45;;;;;;;;;;6193822;23;20000;-96